createdAt,value
2018-04-10T00:00:03.883Z,69.50
2018-04-10T00:02:31.578Z,69.50
2018-04-10T00:04:59.273Z,70.80
2018-04-10T00:07:27.717Z,70.50
2018-04-10T00:09:55.412Z,70.50
2018-04-10T00:12:23.125Z,70.80
2018-04-10T00:14:50.780Z,70.70
2018-04-10T00:17:18.470Z,70.90
2018-04-10T00:19:46.100Z,71.10
2018-04-10T00:22:13.790Z,71.30
2018-04-10T00:24:42.220Z,71.50
2018-04-10T00:27:09.900Z,71.50
2018-04-10T00:29:38.335Z,72.60
2018-04-10T00:32:05.959Z,71.80
2018-04-10T00:34:33.624Z,72.00
2018-04-10T00:37:01.240Z,72.30
2018-04-10T00:39:28.883Z,72.40
2018-04-10T00:41:56.524Z,73.50
2018-04-10T00:44:24.144Z,73.10
2018-04-10T00:46:51.793Z,73.50
2018-04-10T00:49:19.414Z,73.70
2018-04-10T00:51:47.062Z,74.00
2018-04-10T00:54:14.679Z,74.20
2018-04-10T00:56:43.083Z,74.40
2018-04-10T00:59:11.512Z,74.70
2018-04-10T01:01:39.136Z,74.60
2018-04-10T01:04:06.773Z,74.90
2018-04-10T01:06:34.456Z,74.90
2018-04-10T01:09:02.876Z,75.30
2018-04-10T01:11:30.529Z,75.10
2018-04-10T01:13:58.943Z,75.90
2018-04-10T01:16:27.369Z,75.50
2018-04-10T01:18:55.075Z,75.30
2018-04-10T01:21:22.729Z,75.40
2018-04-10T01:23:51.166Z,75.70
2018-04-10T01:26:18.780Z,75.60
2018-04-10T01:28:46.420Z,75.80
2018-04-10T01:31:14.097Z,75.90
2018-04-10T01:33:41.780Z,76.00
2018-04-10T01:36:09.436Z,76.20
2018-04-10T01:38:37.058Z,76.20
2018-04-10T01:41:04.700Z,76.30
2018-04-10T01:43:32.340Z,76.40
2018-04-10T01:45:59.985Z,76.70
2018-04-10T01:48:29.115Z,76.90
2018-04-10T01:50:57.513Z,77.50
2018-04-10T01:53:25.168Z,77.50
2018-04-10T01:55:52.825Z,77.40
2018-04-10T01:58:20.432Z,77.40
2018-04-10T02:00:48.120Z,77.40
2018-04-10T02:03:15.727Z,77.40
2018-04-10T02:05:43.380Z,77.30
2018-04-10T02:08:10.985Z,77.30
2018-04-10T02:10:54.208Z,77.40
2018-04-10T02:13:21.845Z,77.30
2018-04-10T02:15:49.488Z,77.20
2018-04-10T02:18:17.192Z,77.40
2018-04-10T02:20:45.600Z,78.20
2018-04-10T02:23:13.289Z,78.20
2018-04-10T02:25:40.924Z,78.30
2018-04-10T02:28:09.391Z,78.80
2018-04-10T02:30:37.837Z,78.90
2018-04-10T02:33:06.268Z,79.20
2018-04-10T02:35:33.948Z,79.20
2018-04-10T02:38:01.608Z,79.40
2018-04-10T02:40:29.253Z,79.60
2018-04-10T02:42:56.885Z,79.60
2018-04-10T02:45:25.308Z,79.70
2018-04-10T02:47:53.013Z,79.70
2018-04-10T02:50:20.680Z,79.80
2018-04-10T02:52:48.351Z,79.80
2018-04-10T02:55:16.786Z,79.90
2018-04-10T02:57:44.430Z,79.90
2018-04-10T03:00:12.101Z,80.00
2018-04-10T03:02:39.806Z,80.30
2018-04-10T03:05:07.408Z,80.20
2018-04-10T03:07:35.853Z,80.30
2018-04-10T03:10:03.617Z,80.30
2018-04-10T03:12:32.041Z,80.40
2018-04-10T03:14:59.672Z,80.40
2018-04-10T03:17:27.291Z,80.40
2018-04-10T03:19:55.761Z,81.30
2018-04-10T03:22:23.448Z,80.60
2018-04-10T03:24:51.105Z,80.60
2018-04-10T03:27:18.832Z,80.70
2018-04-10T03:29:46.483Z,80.70
2018-04-10T03:35:20.534Z,81.90
2018-04-10T03:37:48.204Z,81.10
2018-04-10T03:40:15.862Z,81.30
2018-04-10T03:42:43.502Z,81.40
2018-04-10T03:45:11.168Z,81.60
2018-04-10T03:47:38.785Z,81.80
2018-04-10T03:50:06.500Z,81.80
2018-04-10T03:52:34.194Z,81.80
2018-04-10T03:55:01.821Z,81.90
2018-04-10T03:57:29.519Z,81.90
2018-04-10T03:59:57.165Z,82.10
2018-04-10T04:02:24.936Z,82.20
2018-04-10T04:04:53.485Z,82.30
2018-04-10T04:07:21.119Z,82.30
2018-04-10T04:09:49.556Z,82.30
2018-04-10T04:12:17.180Z,82.20
2018-04-10T04:14:44.840Z,82.30
2018-04-10T04:17:36.266Z,82.30
2018-04-10T04:20:16.654Z,82.40
2018-04-10T04:22:44.351Z,82.40
2018-04-10T04:25:12.770Z,82.50
2018-04-10T04:27:40.448Z,82.50
2018-04-10T04:30:08.096Z,82.50
2018-04-10T04:32:36.545Z,82.80
2018-04-10T04:35:04.165Z,82.70
2018-04-10T04:37:31.844Z,83.00
2018-04-10T04:39:59.465Z,83.10
2018-04-10T04:42:27.120Z,83.10
2018-04-10T04:44:54.791Z,83.30
2018-04-10T04:47:22.493Z,83.50
2018-04-10T04:49:50.116Z,83.60
2018-04-10T04:52:17.809Z,83.70
2018-04-10T04:54:45.454Z,83.60
2018-04-10T04:57:13.081Z,84.30
2018-04-10T04:59:41.553Z,83.80
2018-04-10T05:02:09.186Z,83.70
2018-04-10T05:04:37.624Z,83.40
2018-04-10T05:07:05.238Z,84.10
2018-04-10T05:09:32.904Z,84.10
2018-04-10T05:12:00.563Z,84.20
2018-04-10T05:14:28.940Z,85.20
2018-04-10T05:16:56.577Z,84.40
2018-04-10T05:19:24.215Z,84.40
2018-04-10T05:21:51.853Z,84.50
2018-04-10T05:24:19.504Z,84.60
2018-04-10T05:26:47.894Z,84.50
2018-04-10T05:29:15.553Z,84.50
2018-04-10T05:31:43.193Z,84.30
2018-04-10T05:34:11.642Z,84.20
2018-04-10T05:36:39.325Z,84.00
2018-04-10T05:39:06.982Z,83.90
2018-04-10T05:41:35.425Z,84.60
2018-04-10T05:44:03.064Z,83.70
2018-04-10T05:46:30.696Z,83.70
2018-04-10T05:48:58.388Z,83.80
2018-04-10T05:51:26.032Z,83.80
2018-04-10T05:53:54.425Z,84.00
2018-04-10T05:56:22.053Z,83.90
2018-04-10T05:58:49.729Z,83.90
2018-04-10T06:01:17.398Z,84.00
2018-04-10T06:03:45.813Z,84.30
2018-04-10T06:06:13.459Z,84.20
2018-04-10T06:08:41.108Z,84.30
2018-04-10T06:11:08.761Z,84.50
2018-04-10T06:13:37.173Z,84.30
2018-04-10T06:16:05.597Z,84.30
2018-04-10T06:18:33.225Z,84.30
2018-04-10T06:21:00.900Z,84.10
2018-04-10T06:23:28.545Z,83.90
2018-04-10T06:25:56.200Z,83.50
2018-04-10T06:28:23.856Z,83.40
2018-04-10T06:30:51.492Z,83.20
2018-04-10T06:33:19.901Z,82.90
2018-04-10T06:35:48.292Z,82.70
2018-04-10T06:38:16.728Z,82.50
2018-04-10T06:40:44.351Z,82.50
2018-04-10T06:43:11.981Z,82.30
2018-04-10T06:45:40.417Z,80.70
2018-04-10T06:48:08.040Z,80.70
2018-04-10T06:50:35.714Z,80.30
2018-04-10T06:53:03.364Z,80.00
2018-04-10T06:55:31.000Z,79.60
2018-04-10T06:57:58.661Z,78.90
2018-04-10T07:00:26.301Z,79.10
2018-04-10T07:02:54.768Z,78.10
2018-04-10T07:05:22.414Z,78.00
2018-04-10T07:07:50.048Z,77.80
2018-04-10T07:10:17.716Z,77.40
2018-04-10T07:12:45.357Z,77.10
2018-04-10T07:15:12.992Z,76.60
2018-04-10T07:17:40.636Z,76.10
2018-04-10T07:20:08.306Z,75.70
2018-04-10T07:22:36.756Z,74.60
2018-04-10T07:25:04.381Z,74.60
2018-04-10T07:27:32.025Z,74.20
2018-04-10T07:29:59.677Z,73.60
2018-04-10T07:32:28.078Z,72.50
2018-04-10T07:34:56.502Z,71.90
2018-04-10T07:37:24.127Z,71.90
2018-04-10T07:39:51.788Z,71.40
2018-04-10T07:42:19.448Z,70.90
2018-04-10T07:44:47.833Z,70.50
2018-04-10T07:47:15.557Z,70.50
2018-04-10T07:49:43.285Z,70.00
2018-04-10T07:52:10.947Z,69.40
2018-04-10T07:54:39.348Z,68.40
2018-04-10T07:57:06.984Z,68.40
2018-04-10T07:59:34.641Z,67.90
2018-04-10T08:02:02.292Z,67.50
2018-04-10T08:04:31.257Z,67.40
2018-04-10T08:06:58.876Z,66.80
2018-04-10T08:09:26.522Z,66.00
2018-04-10T08:11:54.949Z,65.10
2018-04-10T08:14:22.604Z,65.00
2018-04-10T08:16:51.005Z,64.80
2018-04-10T08:19:18.668Z,64.00
2018-04-10T08:21:46.304Z,63.50
2018-04-10T08:24:13.973Z,62.90
2018-04-10T08:26:41.645Z,62.20
2018-04-10T08:29:09.278Z,61.80
2018-04-10T08:31:36.946Z,61.20
2018-04-10T08:34:04.616Z,60.70
2018-04-10T08:36:32.295Z,60.20
2018-04-10T08:38:59.950Z,59.70
2018-04-10T08:41:27.568Z,59.10
2018-04-10T08:43:55.229Z,58.60
2018-04-10T08:46:22.894Z,58.30
2018-04-10T08:48:50.548Z,57.80
2018-04-10T08:51:18.185Z,57.60
2018-04-10T08:53:45.816Z,57.40
2018-04-10T08:56:14.285Z,56.00
2018-04-10T08:58:41.956Z,56.00
2018-04-10T09:01:09.598Z,55.40
2018-04-10T09:03:38.029Z,55.30
2018-04-10T09:06:05.664Z,55.30
2018-04-10T09:08:33.357Z,55.10
2018-04-10T09:11:01.025Z,54.20
2018-04-10T09:13:28.653Z,53.40
2018-04-10T09:15:57.089Z,52.80
2018-04-10T09:18:24.721Z,52.70
2018-04-10T09:20:52.390Z,52.90
2018-04-10T09:23:20.051Z,53.30
2018-04-10T09:25:47.679Z,53.10
2018-04-10T09:28:15.321Z,52.80
2018-04-10T09:30:42.977Z,52.70
2018-04-10T09:33:11.401Z,52.60
2018-04-10T09:35:39.080Z,52.60
2018-04-10T09:38:06.713Z,52.30
2018-04-10T09:40:34.375Z,52.20
2018-04-10T09:43:01.991Z,52.10
2018-04-10T09:45:29.667Z,51.70
2018-04-10T09:47:57.353Z,51.30
2018-04-10T09:50:24.997Z,51.40
2018-04-10T09:52:53.425Z,51.40
2018-04-10T09:55:21.044Z,51.30
2018-04-10T09:57:48.685Z,51.50
2018-04-10T10:00:16.403Z,51.60
2018-04-10T10:02:44.016Z,51.70
2018-04-10T10:05:11.676Z,51.20
2018-04-10T10:07:39.341Z,50.70
2018-04-10T10:10:07.046Z,50.50
2018-04-10T10:12:34.761Z,50.10
2018-04-10T10:15:02.409Z,49.40
2018-04-10T10:17:30.097Z,48.40
2018-04-10T10:19:57.756Z,48.00
2018-04-10T10:22:26.199Z,47.10
2018-04-10T10:24:53.866Z,46.90
2018-04-10T10:27:21.514Z,46.60
2018-04-10T10:29:49.969Z,45.40
2018-04-10T10:32:17.616Z,45.20
2018-04-10T10:34:46.051Z,44.10
2018-04-10T10:37:13.741Z,44.10
2018-04-10T10:39:41.374Z,44.10
2018-04-10T10:42:09.055Z,43.80
2018-04-10T10:44:36.722Z,43.50
2018-04-10T10:47:04.384Z,43.20
2018-04-10T10:49:32.106Z,42.60
2018-04-10T10:51:59.728Z,42.40
2018-04-10T10:54:28.169Z,42.40
2018-04-10T10:56:55.796Z,42.40
2018-04-10T10:59:23.473Z,42.80
2018-04-10T11:01:51.137Z,43.20
2018-04-10T11:04:18.754Z,43.70
2018-04-10T11:06:46.421Z,43.70
2018-04-10T11:09:14.077Z,43.50
2018-04-10T11:11:41.920Z,44.10
2018-04-10T11:14:09.661Z,42.90
2018-04-10T11:16:37.298Z,42.70
2018-04-10T11:19:04.967Z,42.70
2018-04-10T11:21:32.596Z,42.50
2018-04-10T11:24:01.034Z,41.90
2018-04-10T11:26:28.697Z,42.00
2018-04-10T11:28:56.305Z,42.40
2018-04-10T11:31:23.985Z,41.90
2018-04-10T11:33:51.641Z,41.70
2018-04-10T11:36:20.076Z,41.70
2018-04-10T11:38:47.749Z,41.70
2018-04-10T11:41:15.395Z,41.60
2018-04-10T11:43:43.085Z,41.80
2018-04-10T11:46:10.745Z,42.00
2018-04-10T11:48:38.438Z,41.50
2018-04-10T11:51:06.093Z,41.40
2018-04-10T11:53:33.769Z,40.00
2018-04-10T11:56:01.465Z,39.40
2018-04-10T11:58:29.116Z,39.10
2018-04-10T12:00:57.622Z,38.80
2018-04-10T12:03:25.266Z,38.70
2018-04-10T12:05:52.936Z,38.70
2018-04-10T12:08:20.609Z,38.80
2018-04-10T12:10:48.212Z,39.40
2018-04-10T12:13:15.877Z,39.70
2018-04-10T12:15:44.299Z,39.90
2018-04-10T12:18:12.733Z,39.70
2018-04-10T12:20:40.390Z,39.70
2018-04-10T12:23:08.021Z,39.40
2018-04-10T12:25:35.699Z,39.40
2018-04-10T12:28:03.340Z,39.70
2018-04-10T12:30:31.780Z,40.30
2018-04-10T12:32:59.432Z,40.30
2018-04-10T12:35:27.821Z,39.70
2018-04-10T12:37:55.505Z,39.70
2018-04-10T12:40:23.126Z,39.60
2018-04-10T12:42:50.775Z,39.70
2018-04-10T12:45:18.464Z,39.40
2018-04-10T12:47:46.148Z,39.30
2018-04-10T12:50:13.826Z,39.00
2018-04-10T12:52:41.469Z,38.60
2018-04-10T12:55:09.163Z,38.60
2018-04-10T12:57:36.851Z,38.80
2018-04-10T13:00:04.489Z,39.00
2018-04-10T13:02:32.143Z,39.20
2018-04-10T13:04:59.780Z,39.60
2018-04-10T13:07:28.241Z,40.50
2018-04-10T13:09:55.885Z,40.50
2018-04-10T13:12:23.583Z,40.70
2018-04-10T13:21:01.268Z,40.80
2018-04-10T13:23:29.627Z,40.90
2018-04-10T13:25:57.289Z,41.10
2018-04-10T13:28:25.712Z,41.50
2018-04-10T13:30:53.353Z,41.50
2018-04-10T13:33:21.018Z,41.50
2018-04-10T13:35:48.744Z,41.70
2018-04-10T13:38:16.418Z,42.00
2018-04-10T13:40:44.818Z,42.60
2018-04-10T13:43:12.476Z,43.00
2018-04-10T13:45:40.255Z,42.40
2018-04-10T13:48:07.900Z,42.10
2018-04-10T13:50:35.587Z,42.20
2018-04-10T13:53:03.245Z,42.30
2018-04-10T13:55:30.892Z,42.20
2018-04-10T13:57:58.569Z,42.00
2018-04-10T14:00:26.956Z,42.20
2018-04-10T14:02:54.638Z,42.30
2018-04-10T14:05:22.278Z,42.60
2018-04-10T14:07:49.977Z,43.00
2018-04-10T14:10:17.712Z,43.40
2018-04-10T14:12:45.339Z,43.60
2018-04-10T14:15:13.036Z,44.00
2018-04-10T14:17:40.703Z,44.20
2018-04-10T14:20:08.337Z,44.30
2018-04-10T14:22:36.006Z,44.70
2018-04-10T14:25:03.693Z,44.90
2018-04-10T14:27:31.384Z,45.20
2018-04-10T14:29:59.102Z,45.20
2018-04-10T14:32:26.808Z,45.50
2018-04-10T14:34:55.551Z,46.10
2018-04-10T14:37:23.261Z,46.10
2018-04-10T14:39:51.111Z,46.40
2018-04-10T14:42:18.911Z,46.40
2018-04-10T14:44:46.534Z,46.20
2018-04-10T14:47:14.189Z,46.20
2018-04-10T14:49:41.817Z,46.10
2018-04-10T14:52:09.517Z,46.10
2018-04-10T14:54:37.181Z,46.30
2018-04-10T14:57:04.796Z,46.30
2018-04-10T14:59:32.433Z,46.70
2018-04-10T15:02:00.045Z,47.20
2018-04-10T15:04:27.692Z,47.20
2018-04-10T15:06:55.336Z,46.90
2018-04-10T15:09:22.979Z,46.50
2018-04-10T15:11:50.677Z,46.40
2018-04-10T15:14:18.306Z,46.40
2018-04-10T15:16:46.116Z,46.60
2018-04-10T15:19:14.546Z,46.70
2018-04-10T15:21:42.146Z,46.60
2018-04-10T15:24:09.809Z,46.60
2018-04-10T15:26:37.525Z,46.60
2018-04-10T15:29:05.193Z,46.90
2018-04-10T15:31:32.826Z,47.00
2018-04-10T15:34:00.460Z,47.00
2018-04-10T15:36:28.117Z,47.00
2018-04-10T15:38:56.513Z,47.30
2018-04-10T15:41:24.165Z,47.30
2018-04-10T15:43:51.849Z,47.50
2018-04-10T15:46:19.485Z,47.80
2018-04-10T15:48:47.918Z,48.00
2018-04-10T15:51:15.557Z,47.90
2018-04-10T15:53:43.976Z,47.80
2018-04-10T15:56:11.651Z,47.80
2018-04-10T15:58:39.286Z,48.20
2018-04-10T16:01:06.946Z,48.80
2018-04-10T16:03:37.426Z,49.30
2018-04-10T16:06:05.105Z,49.50
2018-04-10T16:08:33.560Z,49.70
2018-04-10T16:11:01.188Z,49.60
2018-04-10T16:13:28.834Z,50.20
2018-04-10T16:15:56.466Z,50.60
2018-04-10T16:18:24.928Z,51.60
2018-04-10T16:20:52.621Z,51.60
2018-04-10T16:23:20.248Z,52.10
2018-04-10T16:25:48.685Z,52.20
2018-04-10T16:28:16.342Z,52.10
2018-04-10T16:30:44.779Z,51.70
2018-04-10T16:33:13.309Z,51.30
2018-04-10T16:35:41.729Z,51.40
2018-04-10T16:38:09.393Z,51.40
2018-04-10T16:40:37.037Z,51.40
2018-04-10T16:43:05.469Z,51.60
2018-04-10T16:45:33.105Z,51.50
2018-04-10T16:48:01.084Z,51.80
2018-04-10T16:50:28.808Z,52.30
2018-04-10T16:52:57.236Z,53.00
2018-04-10T16:55:24.957Z,53.00
2018-04-10T16:57:52.597Z,53.50
2018-04-10T17:00:21.025Z,54.20
2018-04-10T17:02:48.633Z,54.20
2018-04-10T17:05:16.293Z,54.30
2018-04-10T17:07:43.967Z,54.60
2018-04-10T17:10:11.602Z,54.60
2018-04-10T17:12:39.331Z,54.90
2018-04-10T17:15:12.013Z,55.30
2018-04-10T17:17:53.043Z,55.80
2018-04-10T17:23:17.095Z,55.90
2018-04-10T17:25:49.835Z,55.90
2018-04-10T17:28:17.510Z,55.90
2018-04-10T17:30:45.205Z,56.50
2018-04-10T17:33:12.865Z,56.10
2018-04-10T17:35:40.524Z,56.30
2018-04-10T17:38:08.157Z,56.50
2018-04-10T17:40:35.853Z,56.60
2018-04-10T17:43:03.564Z,56.80
2018-04-10T17:45:31.209Z,56.70
2018-04-10T17:47:58.858Z,56.90
2018-04-10T17:50:26.496Z,57.20
2018-04-10T17:52:54.205Z,57.50
2018-04-10T17:55:21.855Z,57.90
2018-04-10T17:57:49.503Z,58.10
2018-04-10T18:00:17.162Z,58.50
2018-04-10T18:02:44.804Z,58.90
2018-04-10T18:05:13.261Z,59.50
2018-04-10T18:07:40.921Z,59.60
2018-04-10T18:10:08.549Z,59.60
2018-04-10T18:12:36.229Z,59.80
2018-04-10T18:15:03.916Z,59.80
2018-04-10T18:17:31.592Z,60.00
2018-04-10T18:19:59.227Z,60.00
2018-04-10T18:22:26.935Z,60.30
2018-04-10T18:24:55.378Z,60.40
2018-04-10T18:27:22.997Z,60.40
2018-04-10T18:29:50.661Z,60.30
2018-04-10T18:32:18.288Z,60.10
2018-04-10T18:34:45.928Z,60.30
2018-04-10T18:37:13.552Z,60.40
2018-04-10T18:39:41.177Z,60.40
2018-04-10T18:42:09.575Z,60.80
2018-04-10T18:44:38.036Z,61.00
2018-04-10T18:47:05.680Z,61.00
2018-04-10T18:49:33.289Z,61.20
2018-04-10T18:52:00.948Z,61.50
2018-04-10T18:54:29.376Z,61.80
2018-04-10T18:56:57.060Z,61.80
2018-04-10T19:05:16.068Z,61.60
2018-04-10T19:07:43.681Z,61.60
2018-04-10T19:10:11.285Z,62.20
2018-04-10T19:12:38.967Z,62.90
2018-04-10T19:15:06.606Z,64.70
2018-04-10T19:17:34.260Z,65.10
2018-04-10T19:20:01.908Z,66.60
2018-04-10T19:22:29.688Z,66.30
2018-04-10T19:24:57.381Z,67.10
2018-04-10T19:27:25.025Z,67.00
2018-04-10T19:29:52.668Z,67.00
2018-04-10T19:32:20.293Z,67.20
2018-04-10T19:34:59.257Z,67.70
2018-04-10T19:37:26.877Z,68.20
2018-04-10T19:39:54.532Z,68.70
2018-04-10T19:42:23.898Z,69.90
2018-04-10T19:44:51.557Z,69.90
2018-04-10T19:47:19.202Z,70.50
2018-04-10T19:49:47.316Z,71.30
2018-04-10T19:52:15.390Z,70.80
2018-04-10T19:54:43.128Z,71.80
2018-04-10T19:57:11.627Z,71.30
2018-04-10T19:59:40.722Z,71.90
2018-04-10T20:02:09.559Z,71.80
2018-04-10T20:04:37.328Z,72.40
2018-04-10T20:07:06.412Z,72.50
2018-04-10T20:09:34.211Z,72.50
2018-04-10T20:12:01.885Z,72.60
2018-04-10T20:14:29.649Z,72.60
2018-04-10T20:16:58.142Z,72.70
2018-04-10T20:19:32.212Z,72.80
2018-04-10T20:21:59.860Z,72.80
2018-04-10T20:24:28.276Z,72.90
2018-04-10T20:26:56.649Z,72.90
2018-04-10T20:29:24.321Z,72.80
2018-04-10T20:31:51.987Z,73.00
2018-04-10T20:34:19.659Z,73.10
2018-04-10T20:36:47.347Z,73.10
2018-04-10T20:39:15.779Z,73.10
2018-04-10T20:41:43.437Z,73.10
2018-04-10T20:44:12.153Z,73.20
2018-04-10T20:46:39.817Z,73.20
2018-04-10T20:49:07.514Z,73.40
2018-04-10T20:51:36.053Z,74.00
2018-04-10T20:54:03.696Z,74.00
2018-04-10T20:56:31.296Z,74.50
2018-04-10T20:58:59.690Z,74.80
2018-04-10T21:01:27.540Z,75.40
2018-04-10T21:03:55.257Z,75.80
2018-04-10T21:06:22.888Z,76.30
2018-04-10T21:08:51.345Z,78.40
2018-04-10T21:11:19.727Z,78.40
2018-04-10T21:13:47.392Z,78.90
2018-04-10T21:16:15.757Z,79.80
2018-04-10T21:18:43.445Z,79.70
2018-04-10T21:21:11.869Z,81.20
2018-04-10T21:23:39.653Z,81.10
2018-04-10T21:26:07.291Z,81.90
2018-04-10T21:28:34.916Z,82.40
2018-04-10T21:31:02.540Z,82.80
2018-04-10T21:33:30.188Z,83.30
2018-04-10T21:35:57.812Z,83.90
2018-04-10T21:38:25.416Z,84.10
2018-04-10T21:40:53.820Z,84.80
2018-04-10T21:43:30.344Z,85.20
2018-04-10T21:45:57.997Z,85.10
2018-04-10T21:48:26.421Z,85.80
2018-04-10T21:50:54.162Z,85.80
2018-04-10T21:53:21.801Z,85.80
2018-04-10T21:55:49.431Z,85.80
2018-04-10T21:58:17.131Z,85.90
2018-04-10T22:00:44.988Z,86.00
2018-04-10T22:03:12.937Z,86.30
2018-04-10T22:05:41.370Z,86.60
2018-04-10T22:08:09.002Z,86.60
2018-04-10T22:10:37.481Z,86.90
2018-04-10T22:13:05.140Z,86.90
2018-04-10T22:15:32.790Z,87.00
2018-04-10T22:18:01.231Z,87.40
2018-04-10T22:20:28.858Z,87.30
2018-04-10T22:22:56.502Z,87.50
2018-04-10T22:25:24.156Z,87.60
2018-04-10T22:27:52.549Z,88.00
2018-04-10T22:30:20.215Z,88.00
2018-04-10T22:32:47.798Z,88.10
2018-04-10T22:35:16.244Z,88.90
2018-04-10T22:37:43.869Z,88.50
2018-04-10T22:40:30.494Z,88.60
2018-04-10T22:42:58.152Z,88.80
2018-04-10T22:45:25.814Z,88.80
2018-04-10T22:47:54.204Z,88.90
2018-04-10T22:50:22.597Z,90.00
2018-04-10T22:52:50.256Z,89.10
2018-04-10T22:55:17.940Z,89.20
2018-04-10T22:57:45.569Z,89.20
2018-04-10T23:00:13.277Z,89.20
2018-04-10T23:02:40.910Z,89.30
2018-04-10T23:05:09.358Z,90.00
2018-04-10T23:07:37.757Z,90.00
2018-04-10T23:10:05.381Z,90.00
2018-04-10T23:12:33.054Z,90.10
2018-04-10T23:15:01.469Z,90.30
2018-04-10T23:17:29.876Z,90.40
2018-04-10T23:19:58.319Z,90.60
2018-04-10T23:22:25.988Z,90.50
2018-04-10T23:24:53.653Z,90.60
2018-04-10T23:27:22.077Z,90.80
2018-04-10T23:29:49.749Z,90.70
2018-04-10T23:32:18.178Z,91.10
2018-04-10T23:34:45.799Z,91.00
2018-04-10T23:37:13.471Z,91.10
2018-04-10T23:39:41.061Z,91.50
2018-04-10T23:42:08.701Z,91.20
2018-04-10T23:44:36.383Z,91.20
2018-04-10T23:47:04.013Z,91.70
2018-04-10T23:49:31.665Z,91.30
2018-04-10T23:52:00.031Z,91.30
2018-04-10T23:54:27.687Z,91.30
2018-04-10T23:56:55.345Z,91.30
2018-04-10T23:59:23.753Z,91.30
